sensor_id;sensor_type;location;lat;lon;timestamp;pressure;altitude;pressure_sealevel;temperature;humidity
12781;BME280;6454;43.304;24.344;2022-07-04T00:01:42;100298.16;;;23.79;84.24
12781;BME280;6454;43.304;24.344;2022-07-04T00:04:10;100291.78;;;23.75;84.08
12781;BME280;6454;43.304;24.344;2022-07-04T00:06:37;100293.75;;;23.75;84.09
12781;BME280;6454;43.304;24.344;2022-07-04T00:09:04;100304.00;;;23.74;84.06
12781;BME280;6454;43.304;24.344;2022-07-04T00:11:31;100299.19;;;23.71;84.09
12781;BME280;6454;43.304;24.344;2022-07-04T00:13:57;100273.63;;;23.55;84.00
12781;BME280;6454;43.304;24.344;2022-07-04T00:16:24;100290.03;;;23.67;84.55
12781;BME280;6454;43.304;24.344;2022-07-04T00:18:51;100292.81;;;23.67;84.65
12781;BME280;6454;43.304;24.344;2022-07-04T00:21:19;100291.50;;;23.61;85.01
12781;BME280;6454;43.304;24.344;2022-07-04T00:23:46;100289.00;;;23.52;85.63
12781;BME280;6454;43.304;24.344;2022-07-04T00:26:14;100292.50;;;23.49;85.63
12781;BME280;6454;43.304;24.344;2022-07-04T00:28:41;100279.66;;;23.38;86.36
12781;BME280;6454;43.304;24.344;2022-07-04T00:31:08;100280.25;;;23.28;87.07
12781;BME280;6454;43.304;24.344;2022-07-04T00:33:35;100282.13;;;23.24;87.21
12781;BME280;6454;43.304;24.344;2022-07-04T00:36:02;100274.59;;;23.21;87.17
12781;BME280;6454;43.304;24.344;2022-07-04T00:38:30;100280.16;;;23.24;86.40
12781;BME280;6454;43.304;24.344;2022-07-04T00:40:57;100283.38;;;23.26;85.86
12781;BME280;6454;43.304;24.344;2022-07-04T00:43:25;100260.16;;;23.12;85.84
12781;BME280;6454;43.304;24.344;2022-07-04T00:45:52;100280.03;;;23.17;86.44
12781;BME280;6454;43.304;24.344;2022-07-04T00:48:19;100279.19;;;23.13;86.44
12781;BME280;6454;43.304;24.344;2022-07-04T00:50:47;100275.97;;;23.11;86.77
12781;BME280;6454;43.304;24.344;2022-07-04T00:53:14;100279.84;;;23.06;87.51
12781;BME280;6454;43.304;24.344;2022-07-04T00:55:43;100274.56;;;22.98;87.78
12781;BME280;6454;43.304;24.344;2022-07-04T00:58:12;100283.66;;;22.98;87.62
12781;BME280;6454;43.304;24.344;2022-07-04T01:00:39;100268.50;;;22.92;87.00
12781;BME280;6454;43.304;24.344;2022-07-04T01:03:06;100281.63;;;22.95;87.56
12781;BME280;6454;43.304;24.344;2022-07-04T01:05:33;100283.19;;;22.96;87.68
12781;BME280;6454;43.304;24.344;2022-07-04T01:08:00;100283.50;;;22.91;87.39
12781;BME280;6454;43.304;24.344;2022-07-04T01:10:27;100275.50;;;22.86;87.62
12781;BME280;6454;43.304;24.344;2022-07-04T01:12:55;100277.47;;;22.86;87.86
12781;BME280;6454;43.304;24.344;2022-07-04T01:15:22;100279.06;;;22.87;87.89
12781;BME280;6454;43.304;24.344;2022-07-04T01:17:49;100269.25;;;22.89;87.46
12781;BME280;6454;43.304;24.344;2022-07-04T01:20:17;100274.78;;;22.89;87.25
12781;BME280;6454;43.304;24.344;2022-07-04T01:22:44;100253.91;;;22.73;87.24
12781;BME280;6454;43.304;24.344;2022-07-04T01:25:11;100266.03;;;22.87;86.97
12781;BME280;6454;43.304;24.344;2022-07-04T01:27:39;100274.78;;;22.89;86.84
12781;BME280;6454;43.304;24.344;2022-07-04T01:30:07;100273.19;;;22.88;87.05
12781;BME280;6454;43.304;24.344;2022-07-04T01:32:34;100263.28;;;22.87;87.04
12781;BME280;6454;43.304;24.344;2022-07-04T01:35:01;100268.88;;;22.91;86.75
12781;BME280;6454;43.304;24.344;2022-07-04T01:37:29;100269.25;;;22.89;86.51
12781;BME280;6454;43.304;24.344;2022-07-04T01:39:56;100265.19;;;22.83;86.90
12781;BME280;6454;43.304;24.344;2022-07-04T01:42:23;100273.31;;;22.76;87.38
12781;BME280;6454;43.304;24.344;2022-07-04T01:44:50;100270.56;;;22.76;87.15
12781;BME280;6454;43.304;24.344;2022-07-04T01:47:17;100274.41;;;22.72;87.18
12781;BME280;6454;43.304;24.344;2022-07-04T01:49:44;100276.47;;;22.75;87.41
12781;BME280;6454;43.304;24.344;2022-07-04T01:52:11;100223.16;;;22.39;87.14
12781;BME280;6454;43.304;24.344;2022-07-04T01:54:40;100281.47;;;22.69;87.41
12781;BME280;6454;43.304;24.344;2022-07-04T01:57:07;100286.72;;;22.74;86.92
12781;BME280;6454;43.304;24.344;2022-07-04T01:59:33;100291.09;;;22.75;87.37
12781;BME280;6454;43.304;24.344;2022-07-04T02:02:20;100279.53;;;22.70;87.97
12781;BME280;6454;43.304;24.344;2022-07-04T02:04:47;100279.59;;;22.73;87.95
12781;BME280;6454;43.304;24.344;2022-07-04T02:07:13;100298.22;;;22.76;88.17
12781;BME280;6454;43.304;24.344;2022-07-04T02:09:42;100289.13;;;22.76;87.97
12781;BME280;6454;43.304;24.344;2022-07-04T02:12:09;100293.56;;;22.80;87.78
12781;BME280;6454;43.304;24.344;2022-07-04T02:14:53;100288.38;;;22.79;87.69
12781;BME280;6454;43.304;24.344;2022-07-04T02:17:20;100294.72;;;22.79;88.29
12781;BME280;6454;43.304;24.344;2022-07-04T02:19:47;100298.22;;;22.76;87.87
12781;BME280;6454;43.304;24.344;2022-07-04T02:22:14;100296.09;;;22.70;88.03
12781;BME280;6454;43.304;24.344;2022-07-04T02:24:43;100304.41;;;22.70;87.36
12781;BME280;6454;43.304;24.344;2022-07-04T02:27:10;100278.75;;;22.54;87.49
12781;BME280;6454;43.304;24.344;2022-07-04T02:29:37;100304.50;;;22.73;87.33
12781;BME280;6454;43.304;24.344;2022-07-04T02:32:04;100277.41;;;22.63;86.28
12781;BME280;6454;43.304;24.344;2022-07-04T02:34:31;100301.34;;;22.75;86.27
12781;BME280;6454;43.304;24.344;2022-07-04T02:36:58;100305.25;;;22.74;86.13
12781;BME280;6454;43.304;24.344;2022-07-04T02:39:25;100305.63;;;22.72;85.98
12781;BME280;6454;43.304;24.344;2022-07-04T02:41:53;100304.03;;;22.71;85.86
12781;BME280;6454;43.304;24.344;2022-07-04T02:44:20;100301.94;;;22.65;86.32
12781;BME280;6454;43.304;24.344;2022-07-04T02:46:47;100317.97;;;22.59;86.64
12781;BME280;6454;43.304;24.344;2022-07-04T02:49:14;100308.19;;;22.62;86.25
12781;BME280;6454;43.304;24.344;2022-07-04T02:51:41;100311.03;;;22.65;86.13
12781;BME280;6454;43.304;24.344;2022-07-04T02:54:08;100314.22;;;22.67;85.85
12781;BME280;6454;43.304;24.344;2022-07-04T02:56:35;100297.75;;;22.55;85.96
12781;BME280;6454;43.304;24.344;2022-07-04T02:59:03;100307.53;;;22.68;85.95
12781;BME280;6454;43.304;24.344;2022-07-04T03:01:30;100316.19;;;22.67;85.69
12781;BME280;6454;43.304;24.344;2022-07-04T03:03:57;100314.13;;;22.64;85.76
12781;BME280;6454;43.304;24.344;2022-07-04T03:06:24;100320.13;;;22.66;85.73
12781;BME280;6454;43.304;24.344;2022-07-04T03:08:51;100313.78;;;22.65;85.24
12781;BME280;6454;43.304;24.344;2022-07-04T03:11:19;100321.72;;;22.67;85.44
12781;BME280;6454;43.304;24.344;2022-07-04T03:13:46;100311.63;;;22.59;85.98
12781;BME280;6454;43.304;24.344;2022-07-04T03:16:14;100313.63;;;22.58;85.95
12781;BME280;6454;43.304;24.344;2022-07-04T03:18:41;100309.66;;;22.59;85.73
12781;BME280;6454;43.304;24.344;2022-07-04T03:21:08;100316.00;;;22.60;85.58
12781;BME280;6454;43.304;24.344;2022-07-04T03:23:35;100316.00;;;22.60;85.49
12781;BME280;6454;43.304;24.344;2022-07-04T03:26:02;100313.72;;;22.62;85.36
12781;BME280;6454;43.304;24.344;2022-07-04T03:28:29;100318.25;;;22.54;85.41
12781;BME280;6454;43.304;24.344;2022-07-04T03:30:56;100316.81;;;22.60;85.17
12781;BME280;6454;43.304;24.344;2022-07-04T03:33:25;100316.56;;;22.65;85.07
12781;BME280;6454;43.304;24.344;2022-07-04T03:35:52;100321.81;;;22.70;85.02
12781;BME280;6454;43.304;24.344;2022-07-04T03:38:19;100329.72;;;22.72;85.68
12781;BME280;6454;43.304;24.344;2022-07-04T03:40:46;100321.94;;;22.77;85.89
12781;BME280;6454;43.304;24.344;2022-07-04T03:43:12;100321.66;;;22.82;85.09
12781;BME280;6454;43.304;24.344;2022-07-04T03:45:39;100324.56;;;22.70;86.63
12781;BME280;6454;43.304;24.344;2022-07-04T03:48:06;100325.81;;;22.73;85.69
12781;BME280;6454;43.304;24.344;2022-07-04T03:50:34;100324.34;;;22.79;85.13
12781;BME280;6454;43.304;24.344;2022-07-04T03:53:01;100318.91;;;22.82;83.71
12781;BME280;6454;43.304;24.344;2022-07-04T03:55:28;100329.44;;;22.77;84.25
12781;BME280;6454;43.304;24.344;2022-07-04T03:57:55;100329.97;;;22.82;84.20
12781;BME280;6454;43.304;24.344;2022-07-04T04:00:22;100336.06;;;22.91;84.04
12781;BME280;6454;43.304;24.344;2022-07-04T04:02:49;100336.53;;;22.93;84.06
12781;BME280;6454;43.304;24.344;2022-07-04T04:05:15;100331.56;;;23.02;83.59
12781;BME280;6454;43.304;24.344;2022-07-04T04:07:57;100328.06;;;23.05;83.24
12781;BME280;6454;43.304;24.344;2022-07-04T04:10:25;100325.34;;;23.09;82.26
12781;BME280;6454;43.304;24.344;2022-07-04T04:12:52;100333.88;;;23.20;82.17
12781;BME280;6454;43.304;24.344;2022-07-04T04:15:19;100334.66;;;23.20;82.01
12781;BME280;6454;43.304;24.344;2022-07-04T04:17:46;100339.53;;;23.27;81.87
12781;BME280;6454;43.304;24.344;2022-07-04T04:20:13;100297.03;;;22.96;81.29
12781;BME280;6454;43.304;24.344;2022-07-04T04:22:39;100350.59;;;23.27;81.38
12781;BME280;6454;43.304;24.344;2022-07-04T04:25:08;100350.72;;;23.34;80.85
12781;BME280;6454;43.304;24.344;2022-07-04T04:27:35;100354.75;;;23.36;82.13
12781;BME280;6454;43.304;24.344;2022-07-04T04:30:03;100356.50;;;23.44;81.53
12781;BME280;6454;43.304;24.344;2022-07-04T04:32:30;100353.06;;;23.51;81.19
12781;BME280;6454;43.304;24.344;2022-07-04T04:34:57;100359.81;;;23.53;82.45
12781;BME280;6454;43.304;24.344;2022-07-04T04:37:24;100348.69;;;23.50;82.00
12781;BME280;6454;43.304;24.344;2022-07-04T04:39:51;100357.22;;;23.60;81.64
12781;BME280;6454;43.304;24.344;2022-07-04T04:42:19;100367.41;;;23.56;82.37
12781;BME280;6454;43.304;24.344;2022-07-04T04:44:46;100372.28;;;23.63;81.27
12781;BME280;6454;43.304;24.344;2022-07-04T04:47:13;100367.09;;;23.61;80.98
12781;BME280;6454;43.304;24.344;2022-07-04T04:49:40;100362.13;;;23.70;80.75
12781;BME280;6454;43.304;24.344;2022-07-04T04:52:07;100362.59;;;23.76;80.33
12781;BME280;6454;43.304;24.344;2022-07-04T04:54:34;100344.28;;;23.68;80.19
12781;BME280;6454;43.304;24.344;2022-07-04T04:57:02;100377.66;;;23.98;80.24
12781;BME280;6454;43.304;24.344;2022-07-04T04:59:31;100373.78;;;24.06;81.06
12781;BME280;6454;43.304;24.344;2022-07-04T05:01:58;100372.78;;;24.14;81.20
12781;BME280;6454;43.304;24.344;2022-07-04T05:04:25;100379.31;;;24.25;80.63
12781;BME280;6454;43.304;24.344;2022-07-04T05:06:52;100368.25;;;24.28;78.88
12781;BME280;6454;43.304;24.344;2022-07-04T05:09:19;100377.06;;;24.34;78.47
12781;BME280;6454;43.304;24.344;2022-07-04T05:11:46;100376.31;;;24.37;79.05
12781;BME280;6454;43.304;24.344;2022-07-04T05:14:14;100326.84;;;24.13;79.73
12781;BME280;6454;43.304;24.344;2022-07-04T05:16:42;100374.28;;;24.60;79.06
12781;BME280;6454;43.304;24.344;2022-07-04T05:19:09;100376.81;;;24.72;78.65
12781;BME280;6454;43.304;24.344;2022-07-04T05:21:36;100374.72;;;24.92;78.72
12781;BME280;6454;43.304;24.344;2022-07-04T05:24:03;100378.09;;;25.08;77.95
12781;BME280;6454;43.304;24.344;2022-07-04T05:26:30;100385.00;;;25.21;76.51
12781;BME280;6454;43.304;24.344;2022-07-04T05:28:57;100381.88;;;25.26;76.07
12781;BME280;6454;43.304;24.344;2022-07-04T05:31:24;100377.94;;;25.27;77.32
12781;BME280;6454;43.304;24.344;2022-07-04T05:33:52;100371.25;;;25.35;76.04
12781;BME280;6454;43.304;24.344;2022-07-04T05:36:20;100372.94;;;25.40;75.92
12781;BME280;6454;43.304;24.344;2022-07-04T05:38:47;100369.91;;;25.55;75.72
12781;BME280;6454;43.304;24.344;2022-07-04T05:41:14;100370.53;;;25.75;75.45
12781;BME280;6454;43.304;24.344;2022-07-04T05:43:41;100357.06;;;25.81;75.34
12781;BME280;6454;43.304;24.344;2022-07-04T05:46:08;100373.53;;;26.03;72.45
12781;BME280;6454;43.304;24.344;2022-07-04T05:48:34;100379.63;;;26.16;71.20
12781;BME280;6454;43.304;24.344;2022-07-04T05:51:03;100383.66;;;26.22;70.85
12781;BME280;6454;43.304;24.344;2022-07-04T05:53:30;100382.47;;;26.23;71.21
12781;BME280;6454;43.304;24.344;2022-07-04T05:55:57;100387.66;;;26.28;71.68
12781;BME280;6454;43.304;24.344;2022-07-04T05:58:24;100397.22;;;26.27;71.84
12781;BME280;6454;43.304;24.344;2022-07-04T06:00:51;100390.44;;;26.28;72.12
12781;BME280;6454;43.304;24.344;2022-07-04T06:03:17;100394.47;;;26.34;71.94
12781;BME280;6454;43.304;24.344;2022-07-04T06:05:45;100397.72;;;26.43;72.75
12781;BME280;6454;43.304;24.344;2022-07-04T06:08:13;100397.75;;;26.50;72.76
12781;BME280;6454;43.304;24.344;2022-07-04T06:10:40;100396.19;;;26.53;71.95
12781;BME280;6454;43.304;24.344;2022-07-04T06:13:07;100391.09;;;26.62;72.26
12781;BME280;6454;43.304;24.344;2022-07-04T06:15:33;100383.94;;;26.64;72.15
12781;BME280;6454;43.304;24.344;2022-07-04T06:18:00;100387.53;;;26.68;71.61
12781;BME280;6454;43.304;24.344;2022-07-04T06:20:28;100382.81;;;26.72;71.09
12781;BME280;6454;43.304;24.344;2022-07-04T06:22:55;100388.75;;;26.71;71.04
12781;BME280;6454;43.304;24.344;2022-07-04T06:25:23;100386.44;;;26.76;70.55
12781;BME280;6454;43.304;24.344;2022-07-04T06:27:50;100384.47;;;26.84;70.71
12781;BME280;6454;43.304;24.344;2022-07-04T06:30:18;100384.91;;;26.90;70.32
12781;BME280;6454;43.304;24.344;2022-07-04T06:32:47;100381.69;;;26.84;70.51
12781;BME280;6454;43.304;24.344;2022-07-04T06:35:18;100387.72;;;27.00;70.07
12781;BME280;6454;43.304;24.344;2022-07-04T06:38:03;100390.16;;;27.09;69.69
12781;BME280;6454;43.304;24.344;2022-07-04T06:40:31;100387.38;;;27.09;69.71
12781;BME280;6454;43.304;24.344;2022-07-04T06:42:58;100383.03;;;27.15;69.95
12781;BME280;6454;43.304;24.344;2022-07-04T06:45:25;100381.44;;;27.14;70.11
12781;BME280;6454;43.304;24.344;2022-07-04T06:47:52;100373.47;;;27.12;70.56
12781;BME280;6454;43.304;24.344;2022-07-04T06:50:19;100372.66;;;27.12;70.93
12781;BME280;6454;43.304;24.344;2022-07-04T06:52:46;100375.47;;;27.12;70.14
12781;BME280;6454;43.304;24.344;2022-07-04T06:55:14;100375.06;;;27.17;69.83
12781;BME280;6454;43.304;24.344;2022-07-04T06:57:56;100371.09;;;27.25;69.70
12781;BME280;6454;43.304;24.344;2022-07-04T07:00:23;100376.28;;;27.30;69.36
12781;BME280;6454;43.304;24.344;2022-07-04T07:02:50;100379.13;;;27.37;69.74
12781;BME280;6454;43.304;24.344;2022-07-04T07:05:16;100374.78;;;27.46;69.63
12781;BME280;6454;43.304;24.344;2022-07-04T07:07:43;100376.78;;;27.50;69.55
12781;BME280;6454;43.304;24.344;2022-07-04T07:10:10;100370.44;;;27.60;70.00
12781;BME280;6454;43.304;24.344;2022-07-04T07:12:37;100368.06;;;27.62;68.50
12781;BME280;6454;43.304;24.344;2022-07-04T07:15:06;100349.72;;;27.54;68.98
12781;BME280;6454;43.304;24.344;2022-07-04T07:17:34;100366.47;;;27.75;68.41
12781;BME280;6454;43.304;24.344;2022-07-04T07:20:01;100366.47;;;27.85;68.35
12781;BME280;6454;43.304;24.344;2022-07-04T07:22:27;100365.72;;;28.02;67.45
12781;BME280;6454;43.304;24.344;2022-07-04T07:24:55;100357.72;;;28.29;66.10
12781;BME280;6454;43.304;24.344;2022-07-04T07:27:22;100366.06;;;28.47;62.84
12781;BME280;6454;43.304;24.344;2022-07-04T07:29:49;100343.34;;;28.38;62.91
12781;BME280;6454;43.304;24.344;2022-07-04T07:32:17;100372.81;;;28.60;62.71
12781;BME280;6454;43.304;24.344;2022-07-04T07:34:44;100355.69;;;28.61;62.49
12781;BME280;6454;43.304;24.344;2022-07-04T07:37:11;100362.41;;;28.74;62.54
12781;BME280;6454;43.304;24.344;2022-07-04T07:39:37;100359.97;;;28.87;61.69
12781;BME280;6454;43.304;24.344;2022-07-04T07:42:04;100350.34;;;29.02;61.76
12781;BME280;6454;43.304;24.344;2022-07-04T07:44:31;100347.94;;;29.11;61.39
12781;BME280;6454;43.304;24.344;2022-07-04T07:46:58;100335.09;;;29.28;62.30
12781;BME280;6454;43.304;24.344;2022-07-04T07:49:26;100345.34;;;29.49;60.41
12781;BME280;6454;43.304;24.344;2022-07-04T07:51:53;100331.28;;;29.59;59.54
12781;BME280;6454;43.304;24.344;2022-07-04T07:54:21;100336.75;;;29.80;57.55
12781;BME280;6454;43.304;24.344;2022-07-04T07:56:48;100333.03;;;29.94;58.09
12781;BME280;6454;43.304;24.344;2022-07-04T07:59:15;100322.16;;;30.03;57.86
12781;BME280;6454;43.304;24.344;2022-07-04T08:01:42;100314.91;;;30.09;56.67
12781;BME280;6454;43.304;24.344;2022-07-04T08:04:08;100323.88;;;30.34;56.15
12781;BME280;6454;43.304;24.344;2022-07-04T08:06:54;100325.72;;;30.48;56.38
12781;BME280;6454;43.304;24.344;2022-07-04T08:09:21;100333.59;;;30.60;54.66
12781;BME280;6454;43.304;24.344;2022-07-04T08:11:48;100329.88;;;30.70;54.73
12781;BME280;6454;43.304;24.344;2022-07-04T08:14:15;100331.75;;;30.80;55.44
12781;BME280;6454;43.304;24.344;2022-07-04T08:16:42;100331.75;;;30.80;50.90
12781;BME280;6454;43.304;24.344;2022-07-04T08:19:08;100329.38;;;30.79;49.08
12781;BME280;6454;43.304;24.344;2022-07-04T08:21:35;100325.78;;;30.78;49.97
12781;BME280;6454;43.304;24.344;2022-07-04T08:24:04;100328.91;;;30.84;50.38
12781;BME280;6454;43.304;24.344;2022-07-04T08:26:31;100324.72;;;30.99;48.85
12781;BME280;6454;43.304;24.344;2022-07-04T08:28:58;100307.88;;;31.02;47.97
12781;BME280;6454;43.304;24.344;2022-07-04T08:31:25;100331.91;;;31.30;47.71
12781;BME280;6454;43.304;24.344;2022-07-04T08:33:52;100321.75;;;31.40;46.50
12781;BME280;6454;43.304;24.344;2022-07-04T08:36:19;100323.13;;;31.58;45.63
12781;BME280;6454;43.304;24.344;2022-07-04T08:38:46;100326.84;;;31.75;44.11
12781;BME280;6454;43.304;24.344;2022-07-04T08:41:16;100300.13;;;31.67;44.43
12781;BME280;6454;43.304;24.344;2022-07-04T08:43:45;100319.81;;;31.86;45.16
12781;BME280;6454;43.304;24.344;2022-07-04T08:46:15;100316.44;;;31.99;43.89
12781;BME280;6454;43.304;24.344;2022-07-04T08:48:50;100314.69;;;32.08;43.97
12781;BME280;6454;43.304;24.344;2022-07-04T08:51:24;100318.34;;;32.05;43.14
12781;BME280;6454;43.304;24.344;2022-07-04T08:53:56;100322.22;;;32.11;43.56
12781;BME280;6454;43.304;24.344;2022-07-04T08:56:24;100312.59;;;32.12;43.09
12781;BME280;6454;43.304;24.344;2022-07-04T08:59:09;100316.91;;;32.17;41.97
12781;BME280;6454;43.304;24.344;2022-07-04T09:01:39;100318.25;;;32.32;41.40
12781;BME280;6454;43.304;24.344;2022-07-04T09:04:07;100312.13;;;32.37;39.42
12781;BME280;6454;43.304;24.344;2022-07-04T09:06:34;100311.59;;;32.45;39.54
12781;BME280;6454;43.304;24.344;2022-07-04T09:09:02;100309.88;;;32.52;41.75
12781;BME280;6454;43.304;24.344;2022-07-04T09:11:30;100309.81;;;32.55;37.66
12781;BME280;6454;43.304;24.344;2022-07-04T09:13:57;100313.19;;;32.66;37.49
12781;BME280;6454;43.304;24.344;2022-07-04T09:16:24;100305.78;;;32.76;37.30
12781;BME280;6454;43.304;24.344;2022-07-04T09:18:53;100303.16;;;32.85;35.56
12781;BME280;6454;43.304;24.344;2022-07-04T09:21:21;100314.19;;;32.95;35.37
12781;BME280;6454;43.304;24.344;2022-07-04T09:23:50;100311.63;;;33.01;35.84
12781;BME280;6454;43.304;24.344;2022-07-04T09:26:18;100309.50;;;33.08;35.17
12781;BME280;6454;43.304;24.344;2022-07-04T09:28:53;100313.91;;;33.09;32.33
12781;BME280;6454;43.304;24.344;2022-07-04T09:31:21;100310.06;;;33.20;33.50
12781;BME280;6454;43.304;24.344;2022-07-04T09:33:51;100309.78;;;33.14;32.75
12781;BME280;6454;43.304;24.344;2022-07-04T09:36:19;100314.97;;;33.16;31.89
12781;BME280;6454;43.304;24.344;2022-07-04T09:39:04;100310.25;;;33.29;33.79
12781;BME280;6454;43.304;24.344;2022-07-04T09:41:31;100314.41;;;33.40;32.72
12781;BME280;6454;43.304;24.344;2022-07-04T09:44:04;100310.69;;;33.43;31.89
12781;BME280;6454;43.304;24.344;2022-07-04T09:46:32;100312.41;;;33.57;31.56
12781;BME280;6454;43.304;24.344;2022-07-04T09:48:59;100315.94;;;33.61;31.07
12781;BME280;6454;43.304;24.344;2022-07-04T09:51:40;100306.00;;;33.72;31.01
12781;BME280;6454;43.304;24.344;2022-07-04T09:54:21;100302.50;;;33.85;32.02
12781;BME280;6454;43.304;24.344;2022-07-04T09:56:52;100298.94;;;33.97;32.51
12781;BME280;6454;43.304;24.344;2022-07-04T09:59:21;100306.06;;;34.01;31.93
12781;BME280;6454;43.304;24.344;2022-07-04T10:01:48;100307.75;;;33.99;31.80
12781;BME280;6454;43.304;24.344;2022-07-04T10:04:15;100302.22;;;33.95;32.23
12781;BME280;6454;43.304;24.344;2022-07-04T10:06:43;100279.97;;;33.85;32.50
12781;BME280;6454;43.304;24.344;2022-07-04T10:09:12;100298.50;;;33.98;31.68
12781;BME280;6454;43.304;24.344;2022-07-04T10:11:41;100294.91;;;33.98;32.35
12781;BME280;6454;43.304;24.344;2022-07-04T10:14:10;100291.72;;;33.96;31.68
12781;BME280;6454;43.304;24.344;2022-07-04T10:16:39;100295.78;;;33.95;31.52
12781;BME280;6454;43.304;24.344;2022-07-04T10:19:07;100291.03;;;33.92;31.68
12781;BME280;6454;43.304;24.344;2022-07-04T10:21:35;100295.25;;;34.00;32.03
12781;BME280;6454;43.304;24.344;2022-07-04T10:24:02;100292.28;;;34.07;33.76
12781;BME280;6454;43.304;24.344;2022-07-04T10:26:30;100289.13;;;34.05;31.52
12781;BME280;6454;43.304;24.344;2022-07-04T10:28:57;100283.38;;;34.08;32.03
12781;BME280;6454;43.304;24.344;2022-07-04T10:31:26;100280.75;;;34.17;33.11
12781;BME280;6454;43.304;24.344;2022-07-04T10:33:56;100278.91;;;34.40;33.71
12781;BME280;6454;43.304;24.344;2022-07-04T10:36:25;100264.97;;;34.49;32.44
12781;BME280;6454;43.304;24.344;2022-07-04T10:38:56;100274.94;;;34.66;32.46
12781;BME280;6454;43.304;24.344;2022-07-04T10:41:25;100272.28;;;34.75;32.33
12781;BME280;6454;43.304;24.344;2022-07-04T10:43:58;100266.97;;;34.77;32.20
12781;BME280;6454;43.304;24.344;2022-07-04T10:46:36;100267.88;;;34.86;32.58
12781;BME280;6454;43.304;24.344;2022-07-04T10:49:16;100268.81;;;34.96;32.42
12781;BME280;6454;43.304;24.344;2022-07-04T10:51:44;100264.63;;;35.01;31.69
12781;BME280;6454;43.304;24.344;2022-07-04T10:54:13;100261.97;;;35.10;32.31
12781;BME280;6454;43.304;24.344;2022-07-04T10:56:49;100253.75;;;35.15;30.48
12781;BME280;6454;43.304;24.344;2022-07-04T10:59:19;100238.06;;;35.14;29.95
12781;BME280;6454;43.304;24.344;2022-07-04T11:01:51;100236.94;;;35.12;30.03
12781;BME280;6454;43.304;24.344;2022-07-04T11:04:55;100234.34;;;35.17;30.29
12781;BME280;6454;43.304;24.344;2022-07-04T11:07:23;100233.66;;;35.13;30.33
12781;BME280;6454;43.304;24.344;2022-07-04T11:10:20;100225.41;;;35.19;30.68
12781;BME280;6454;43.304;24.344;2022-07-04T11:16:03;100206.81;;;35.21;31.24
12781;BME280;6454;43.304;24.344;2022-07-04T11:18:38;100219.75;;;35.31;30.85
12781;BME280;6454;43.304;24.344;2022-07-04T11:21:16;100220.22;;;35.42;31.64
12781;BME280;6454;43.304;24.344;2022-07-04T11:23:49;100218.72;;;35.50;29.95
12781;BME280;6454;43.304;24.344;2022-07-04T11:26:19;100222.69;;;35.53;29.63
12781;BME280;6454;43.304;24.344;2022-07-04T11:28:46;100221.66;;;35.60;29.38
12781;BME280;6454;43.304;24.344;2022-07-04T11:31:13;100193.13;;;35.45;30.43
12781;BME280;6454;43.304;24.344;2022-07-04T11:33:40;100213.88;;;35.64;30.32
12781;BME280;6454;43.304;24.344;2022-07-04T11:36:08;100205.41;;;35.64;30.33
12781;BME280;6454;43.304;24.344;2022-07-04T11:38:51;100211.84;;;35.51;30.64
12781;BME280;6454;43.304;24.344;2022-07-04T11:41:21;100201.78;;;35.50;28.71
12781;BME280;6454;43.304;24.344;2022-07-04T11:44:08;100195.72;;;35.52;29.42
12781;BME280;6454;43.304;24.344;2022-07-04T11:47:02;100182.28;;;35.56;29.11
12781;BME280;6454;43.304;24.344;2022-07-04T11:49:29;100183.41;;;35.58;29.03
12781;BME280;6454;43.304;24.344;2022-07-04T11:51:56;100130.72;;;35.30;29.70
12781;BME280;6454;43.304;24.344;2022-07-04T11:54:25;100180.78;;;35.64;29.07
12781;BME280;6454;43.304;24.344;2022-07-04T11:56:51;100182.28;;;35.56;28.53
12781;BME280;6454;43.304;24.344;2022-07-04T11:59:18;100177.09;;;35.54;28.26
12781;BME280;6454;43.304;24.344;2022-07-04T12:01:45;100174.34;;;35.64;28.66
12781;BME280;6454;43.304;24.344;2022-07-04T12:04:17;100171.75;;;35.69;29.44
12781;BME280;6454;43.304;24.344;2022-07-04T12:06:46;100155.75;;;35.53;30.83
12781;BME280;6454;43.304;24.344;2022-07-04T12:09:13;100168.28;;;35.65;27.97
12781;BME280;6454;43.304;24.344;2022-07-04T12:11:54;100171.66;;;35.60;28.43
12781;BME280;6454;43.304;24.344;2022-07-04T12:14:22;100164.97;;;35.67;28.82
12781;BME280;6454;43.304;24.344;2022-07-04T12:16:48;100155.75;;;35.53;27.64
12781;BME280;6454;43.304;24.344;2022-07-04T12:19:15;100158.00;;;35.58;29.15
12781;BME280;6454;43.304;24.344;2022-07-04T12:21:43;100160.50;;;35.56;28.83
12781;BME280;6454;43.304;24.344;2022-07-04T12:24:11;100157.09;;;35.62;28.59
12781;BME280;6454;43.304;24.344;2022-07-04T12:26:47;100123.28;;;35.36;29.69
12781;BME280;6454;43.304;24.344;2022-07-04T12:29:22;100143.09;;;35.45;29.41
12781;BME280;6454;43.304;24.344;2022-07-04T12:31:51;100127.34;;;35.35;30.04
12781;BME280;6454;43.304;24.344;2022-07-04T12:34:19;100145.00;;;35.61;29.67
12781;BME280;6454;43.304;24.344;2022-07-04T12:36:50;100144.09;;;35.64;29.16
12781;BME280;6454;43.304;24.344;2022-07-04T12:39:28;100143.13;;;35.80;31.87
12781;BME280;6454;43.304;24.344;2022-07-04T12:42:05;100133.03;;;35.91;28.81
12781;BME280;6454;43.304;24.344;2022-07-04T12:44:34;100142.16;;;35.95;28.57
12781;BME280;6454;43.304;24.344;2022-07-04T12:47:02;100141.56;;;35.79;29.37
12781;BME280;6454;43.304;24.344;2022-07-04T12:49:29;100130.00;;;35.64;28.44
12781;BME280;6454;43.304;24.344;2022-07-04T12:52:11;100109.59;;;35.60;29.59
12781;BME280;6454;43.304;24.344;2022-07-04T12:55:02;100124.63;;;35.79;30.81
12781;BME280;6454;43.304;24.344;2022-07-04T12:57:29;100123.13;;;35.87;29.71
12781;BME280;6454;43.304;24.344;2022-07-04T12:59:58;100131.56;;;35.99;30.24
12781;BME280;6454;43.304;24.344;2022-07-04T13:02:24;100124.19;;;36.02;30.87